KZ-0050 weather

Podgorny Airport
Podgorny, Jambyl Region, Kazakhstan

Public forecast

Using degrees Celsius for public forecast. Weather courtesy of forecast.io.

Closest aviation weather report (METAR) to Podgorny Airport

Closest report is Taraz Airport, 52.6 nm (97.4 km) WSW. Retrieved 2020/02/18 00:30 UTC (0 seconds ago):

UADD 180030Z 31002MPS 9999 -SHSN BKN031CB OVC100 M02/M03 Q1028 R31/0///65 NOSIG RMK QFE712/0950

Closest aviation forecast (TAF) to Podgorny Airport

Forecast is more than 12 hours old.

Closest forecast is Taraz Airport, 52.6 nm (97.4 km) WSW. Retrieved 2020-02-09 00:12 UTC (9 days ago):

TAF TAF UADD 082300Z 0800/0909 20005G10MPS 3100 BR SCT050 OVC100